createdAt,value
2023-02-21T00:02:19.152Z,18.63
2023-02-21T00:05:39.685Z,18.61
2023-02-21T00:09:00.163Z,18.61
2023-02-21T00:12:20.960Z,18.57
2023-02-21T00:15:41.940Z,18.57
2023-02-21T00:19:02.577Z,18.55
2023-02-21T00:22:23.557Z,18.54
2023-02-21T00:25:44.004Z,18.52
2023-02-21T00:29:04.812Z,18.51
2023-02-21T00:32:25.597Z,18.52
2023-02-21T00:35:46.530Z,18.50
2023-02-21T00:39:07.301Z,18.49
2023-02-21T00:42:28.157Z,18.46
2023-02-21T00:45:49.145Z,18.46
2023-02-21T00:49:09.919Z,18.44
2023-02-21T00:52:30.789Z,18.42
2023-02-21T00:55:51.634Z,18.42
2023-02-21T00:59:12.625Z,18.40
2023-02-21T01:02:33.516Z,18.39
2023-02-21T01:05:54.495Z,18.37
2023-02-21T01:09:15.359Z,18.36
2023-02-21T01:12:36.119Z,18.35
2023-02-21T01:15:56.936Z,18.33
2023-02-21T01:19:17.796Z,18.33
2023-02-21T01:22:38.645Z,18.32
2023-02-21T01:25:59.463Z,18.27
2023-02-21T01:29:20.371Z,18.27
2023-02-21T01:32:41.121Z,18.25
2023-02-21T01:36:01.775Z,18.26
2023-02-21T01:39:22.546Z,18.24
2023-02-21T01:42:44.290Z,18.23
2023-02-21T01:46:09.161Z,18.22
2023-02-21T01:49:34.398Z,18.20
2023-02-21T01:52:55.342Z,18.18
2023-02-21T01:56:18.443Z,18.17
2023-02-21T01:59:41.242Z,18.14
2023-02-21T02:03:22.666Z,18.13
2023-02-21T02:06:43.648Z,18.12
2023-02-21T02:10:04.429Z,18.10
2023-02-21T02:13:18.079Z,18.09
2023-02-21T02:16:45.802Z,18.09
2023-02-21T02:20:28.349Z,18.07
2023-02-21T02:23:48.854Z,18.05
2023-02-21T02:27:09.850Z,18.03
2023-02-21T02:30:33.269Z,18.03
2023-02-21T02:33:51.061Z,18.02
2023-02-21T02:37:00.970Z,17.99
2023-02-21T02:40:10.720Z,17.99
2023-02-21T02:43:31.679Z,17.98
2023-02-21T02:46:37.117Z,17.96
2023-02-21T02:49:42.616Z,17.95
2023-02-21T02:52:55.320Z,17.93
2023-02-21T02:56:04.125Z,17.93
2023-02-21T02:59:18.047Z,17.91
2023-02-21T03:02:55.697Z,17.89
2023-02-21T03:06:13.064Z,17.87
2023-02-21T03:09:33.912Z,17.85
2023-02-21T03:13:10.999Z,17.84
2023-02-21T03:16:24.803Z,17.83
2023-02-21T03:19:31.685Z,17.82
2023-02-21T03:22:34.091Z,17.81
2023-02-21T03:25:37.746Z,17.79
2023-02-21T03:28:41.194Z,17.78
2023-02-21T03:31:51.897Z,17.77
2023-02-21T03:34:54.500Z,17.77
2023-02-21T03:37:58.552Z,17.74
2023-02-21T03:41:00.912Z,17.74
2023-02-21T03:44:02.901Z,17.72
2023-02-21T03:47:04.964Z,17.69
2023-02-21T03:50:07.439Z,17.70
2023-02-21T03:53:10.145Z,17.67
2023-02-21T03:56:12.128Z,17.66
2023-02-21T03:59:14.211Z,17.66
2023-02-21T04:02:16.482Z,17.65
2023-02-21T04:05:18.524Z,17.62
2023-02-21T04:08:20.579Z,17.61
2023-02-21T04:11:22.808Z,17.61
2023-02-21T04:14:24.890Z,17.60
2023-02-21T04:17:27.046Z,17.59
2023-02-21T04:20:29.040Z,17.58
2023-02-21T04:23:31.088Z,17.53
2023-02-21T04:26:34.946Z,17.55
2023-02-21T04:29:37.102Z,17.53
2023-02-21T04:32:39.237Z,17.53
2023-02-21T04:35:41.354Z,17.54
2023-02-21T04:38:43.415Z,17.64
2023-02-21T04:41:45.475Z,17.77
2023-02-21T04:44:59.388Z,17.84
2023-02-21T04:48:02.240Z,17.90
2023-02-21T04:51:15.190Z,17.93
2023-02-21T04:54:17.534Z,18.06
2023-02-21T04:57:19.602Z,18.15
2023-02-21T05:00:21.811Z,18.20
2023-02-21T05:03:24.504Z,18.23
2023-02-21T05:06:27.851Z,18.24
2023-02-21T05:09:30.151Z,18.25
2023-02-21T05:12:32.703Z,18.23
2023-02-21T05:15:35.025Z,18.23
2023-02-21T05:18:38.558Z,18.26
2023-02-21T05:21:40.555Z,18.26
2023-02-21T05:24:43.005Z,18.32
2023-02-21T05:27:46.065Z,18.34
2023-02-21T05:30:48.140Z,18.35
2023-02-21T05:33:50.248Z,18.35
2023-02-21T05:36:52.387Z,18.35
2023-02-21T05:39:54.384Z,18.34
2023-02-21T05:42:56.464Z,18.39
2023-02-21T05:45:58.576Z,18.43
2023-02-21T05:49:02.436Z,18.48
2023-02-21T05:52:05.404Z,18.48
2023-02-21T05:55:07.675Z,18.49
2023-02-21T05:58:09.677Z,18.48
2023-02-21T06:01:13.490Z,18.42
2023-02-21T06:04:16.439Z,18.50
2023-02-21T06:07:18.679Z,18.58
2023-02-21T06:10:21.094Z,18.62
2023-02-21T06:13:23.272Z,18.63
2023-02-21T06:16:25.690Z,18.61
2023-02-21T06:19:27.700Z,18.62
2023-02-21T06:22:29.778Z,18.68
2023-02-21T06:25:31.837Z,18.74
2023-02-21T06:28:33.949Z,18.76
2023-02-21T06:31:36.389Z,18.77
2023-02-21T06:34:38.496Z,18.73
2023-02-21T06:37:40.589Z,18.71
2023-02-21T06:40:43.858Z,18.74
2023-02-21T06:43:45.935Z,18.81
2023-02-21T06:46:50.547Z,18.83
2023-02-21T06:49:52.630Z,18.83
2023-02-21T06:52:54.724Z,18.81
2023-02-21T06:55:56.705Z,18.79
2023-02-21T06:58:58.741Z,18.80
2023-02-21T07:02:00.971Z,18.85
2023-02-21T07:05:03.073Z,18.91
2023-02-21T07:08:05.690Z,18.96
2023-02-21T07:11:08.456Z,18.96
2023-02-21T07:14:11.321Z,18.93
2023-02-21T07:17:13.458Z,18.94
2023-02-21T07:20:15.488Z,18.94
2023-02-21T07:23:17.772Z,18.96
2023-02-21T07:26:20.260Z,18.99
2023-02-21T07:29:22.533Z,18.97
2023-02-21T07:32:27.518Z,19.01
2023-02-21T07:35:29.549Z,19.11
2023-02-21T07:38:32.185Z,19.18
2023-02-21T07:41:34.182Z,19.21
2023-02-21T07:44:36.436Z,19.18
2023-02-21T07:47:38.833Z,19.08
2023-02-21T07:50:44.218Z,19.02
2023-02-21T07:53:46.278Z,18.98
2023-02-21T07:56:49.614Z,18.97
2023-02-21T07:59:52.064Z,18.95
2023-02-21T08:02:54.159Z,18.97
2023-02-21T08:05:56.297Z,19.09
2023-02-21T08:08:58.298Z,19.22
2023-02-21T08:12:00.420Z,19.37
2023-02-21T08:15:03.309Z,19.47
2023-02-21T08:18:05.591Z,19.54
2023-02-21T08:21:10.386Z,19.61
2023-02-21T08:24:12.623Z,19.73
2023-02-21T08:27:14.689Z,19.79
2023-02-21T08:30:17.816Z,19.89
2023-02-21T08:33:20.173Z,19.96
2023-02-21T08:36:25.358Z,20.01
2023-02-21T08:39:30.111Z,20.06
2023-02-21T08:42:32.181Z,20.10
2023-02-21T08:45:34.252Z,20.12
2023-02-21T08:48:36.273Z,20.10
2023-02-21T08:51:40.085Z,20.12
2023-02-21T08:54:42.435Z,20.11
2023-02-21T08:57:44.446Z,20.10
2023-02-21T09:00:46.520Z,20.11
2023-02-21T09:03:48.713Z,20.12
2023-02-21T09:06:51.795Z,20.12
2023-02-21T09:09:53.848Z,20.09
2023-02-21T09:12:56.257Z,20.07
2023-02-21T09:15:58.749Z,20.07
2023-02-21T09:19:01.295Z,20.07
2023-02-21T09:22:04.397Z,20.04
2023-02-21T09:25:07.522Z,20.02
2023-02-21T09:28:09.617Z,20.03
2023-02-21T09:31:11.723Z,20.00
2023-02-21T09:34:13.863Z,19.99
2023-02-21T09:37:15.943Z,19.99
2023-02-21T09:40:41.145Z,19.99
2023-02-21T09:43:52.026Z,19.96
2023-02-21T09:47:07.870Z,19.97
2023-02-21T09:50:15.117Z,19.95
2023-02-21T09:53:24.580Z,19.96
2023-02-21T09:56:34.832Z,19.89
2023-02-21T09:59:36.862Z,19.44
2023-02-21T10:02:57.697Z,19.66
2023-02-21T10:06:29.169Z,19.82
2023-02-21T10:09:53.859Z,19.86
2023-02-21T10:13:35.150Z,19.89
2023-02-21T10:16:47.995Z,19.88
2023-02-21T10:19:59.784Z,19.88
2023-02-21T10:23:03.760Z,19.90
2023-02-21T10:26:11.268Z,19.92
2023-02-21T10:29:30.407Z,19.95
2023-02-21T10:32:33.043Z,19.97
2023-02-21T10:35:37.433Z,19.98
2023-02-21T10:38:43.013Z,19.95
2023-02-21T10:41:45.159Z,19.97
2023-02-21T10:44:47.314Z,19.98
2023-02-21T10:48:01.409Z,19.98
2023-02-21T10:51:10.141Z,19.99
2023-02-21T10:54:24.972Z,20.00
2023-02-21T10:57:27.962Z,19.99
2023-02-21T11:00:47.772Z,19.99
2023-02-21T11:03:53.153Z,20.00
2023-02-21T11:07:05.022Z,20.00
2023-02-21T11:10:32.365Z,20.00
2023-02-21T11:13:36.271Z,20.01
2023-02-21T11:16:38.437Z,20.02
2023-02-21T11:19:55.726Z,20.04
2023-02-21T11:22:58.163Z,20.04
2023-02-21T11:26:13.874Z,20.09
2023-02-21T11:29:21.885Z,20.06
2023-02-21T11:32:31.763Z,20.04
2023-02-21T11:36:06.139Z,20.04
2023-02-21T11:39:21.555Z,20.05
2023-02-21T11:42:25.702Z,20.05
2023-02-21T11:45:31.374Z,20.07
2023-02-21T11:49:00.689Z,20.10
2023-02-21T11:52:08.362Z,20.13
2023-02-21T11:55:21.636Z,20.13
2023-02-21T11:58:30.254Z,20.11
2023-02-21T12:01:49.905Z,20.10
2023-02-21T12:05:14.074Z,20.11
2023-02-21T12:08:54.074Z,20.12
2023-02-21T12:12:14.698Z,20.12
2023-02-21T12:15:24.497Z,20.12
2023-02-21T12:18:50.576Z,19.88
2023-02-21T12:22:13.583Z,19.72
2023-02-21T12:25:52.614Z,19.71
2023-02-21T12:29:13.043Z,19.73
2023-02-21T12:32:35.707Z,19.74
2023-02-21T12:35:59.798Z,19.76
2023-02-21T12:39:11.846Z,19.77
2023-02-21T12:42:42.267Z,19.77
2023-02-21T12:45:53.078Z,19.80
2023-02-21T12:49:14.320Z,19.84
2023-02-21T12:52:25.633Z,19.85
2023-02-21T12:55:33.849Z,19.91
2023-02-21T12:59:11.523Z,20.11
2023-02-21T13:02:27.414Z,20.27
2023-02-21T13:05:48.709Z,20.33
2023-02-21T13:09:13.918Z,20.34
2023-02-21T13:12:38.822Z,20.40
2023-02-21T13:15:43.320Z,20.43
2023-02-21T13:18:59.458Z,20.44
2023-02-21T13:22:07.548Z,20.49
2023-02-21T13:25:36.063Z,20.54
2023-02-21T13:28:38.846Z,20.56
2023-02-21T13:31:45.848Z,20.60
2023-02-21T13:34:53.926Z,20.64
2023-02-21T13:37:56.772Z,20.69
2023-02-21T13:41:10.433Z,20.73
2023-02-21T13:44:31.540Z,20.75
2023-02-21T13:47:58.616Z,20.79
2023-02-21T13:51:01.080Z,20.84
2023-02-21T13:54:12.659Z,20.89
2023-02-21T13:57:34.216Z,20.89
2023-02-21T14:00:36.324Z,20.90
2023-02-21T14:03:38.462Z,20.92
2023-02-21T14:06:55.964Z,20.94
2023-02-21T14:09:59.183Z,21.01
2023-02-21T14:13:07.482Z,21.07
2023-02-21T14:16:17.340Z,21.06
2023-02-21T14:19:55.370Z,21.08
2023-02-21T14:22:59.576Z,21.10
2023-02-21T14:26:05.868Z,21.11
2023-02-21T14:29:07.820Z,21.14
2023-02-21T14:32:09.956Z,21.15
2023-02-21T14:35:24.307Z,21.15
2023-02-21T14:38:30.036Z,21.11
2023-02-21T14:41:56.798Z,21.13
2023-02-21T14:45:10.908Z,21.10
2023-02-21T14:48:32.006Z,21.08
2023-02-21T14:51:59.150Z,21.08
2023-02-21T14:55:25.254Z,21.08
2023-02-21T14:58:44.735Z,21.10
2023-02-21T15:01:59.703Z,21.08
2023-02-21T15:05:19.265Z,21.07
2023-02-21T15:08:25.169Z,21.04
2023-02-21T15:11:33.300Z,21.02
2023-02-21T15:14:41.500Z,20.96
2023-02-21T15:17:45.168Z,20.90
2023-02-21T15:20:47.224Z,20.81
2023-02-21T15:24:01.531Z,20.79
2023-02-21T15:27:14.384Z,20.73
2023-02-21T15:30:31.511Z,20.69
2023-02-21T15:33:36.687Z,20.68
2023-02-21T15:36:38.830Z,20.64
2023-02-21T15:39:46.503Z,20.61
2023-02-21T15:42:51.476Z,20.62
2023-02-21T15:45:57.672Z,20.61
2023-02-21T15:49:03.497Z,20.57
2023-02-21T15:52:06.017Z,20.49
2023-02-21T15:55:23.240Z,20.46
2023-02-21T15:58:30.009Z,20.43
2023-02-21T16:01:32.048Z,20.43
2023-02-21T16:04:39.289Z,20.39
2023-02-21T16:07:41.358Z,20.34
2023-02-21T16:10:44.261Z,20.31
2023-02-21T16:13:46.780Z,20.28
2023-02-21T16:16:53.966Z,20.26
2023-02-21T16:20:01.604Z,20.22
2023-02-21T16:23:30.216Z,20.21
2023-02-21T16:26:32.371Z,20.20
2023-02-21T16:29:34.416Z,20.17
2023-02-21T16:32:36.813Z,20.14
2023-02-21T16:35:38.845Z,20.12
2023-02-21T16:38:40.906Z,20.12
2023-02-21T16:41:43.063Z,20.09
2023-02-21T16:44:46.024Z,20.05
2023-02-21T16:47:49.852Z,20.02
2023-02-21T16:50:55.757Z,20.00
2023-02-21T16:53:57.740Z,19.99
2023-02-21T16:56:59.848Z,19.97
2023-02-21T17:00:01.916Z,19.95
2023-02-21T17:03:04.033Z,19.92
2023-02-21T17:06:06.380Z,19.91
2023-02-21T17:09:10.686Z,19.90
2023-02-21T17:12:13.428Z,19.88
2023-02-21T17:15:15.615Z,19.86
2023-02-21T17:18:17.744Z,19.85
2023-02-21T17:21:19.878Z,19.84
2023-02-21T17:24:21.974Z,19.82
2023-02-21T17:27:24.249Z,19.80
2023-02-21T17:30:26.792Z,19.79
2023-02-21T17:33:28.856Z,19.77
2023-02-21T17:36:31.010Z,19.75
2023-02-21T17:39:33.057Z,19.73
2023-02-21T17:42:35.165Z,19.72
2023-02-21T17:45:37.626Z,19.70
2023-02-21T17:48:42.263Z,19.68
2023-02-21T17:51:44.440Z,19.67
2023-02-21T17:54:46.506Z,19.67
2023-02-21T17:57:48.650Z,19.65
2023-02-21T18:00:51.212Z,19.62
2023-02-21T18:03:53.191Z,19.60
2023-02-21T18:06:55.214Z,19.61
2023-02-21T18:09:58.119Z,19.59
2023-02-21T18:13:00.348Z,19.58
2023-02-21T18:16:05.347Z,19.56
2023-02-21T18:19:07.540Z,19.55
2023-02-21T18:22:09.727Z,19.53
2023-02-21T18:25:14.718Z,19.52
2023-02-21T18:28:16.960Z,19.51
2023-02-21T18:31:20.420Z,19.50
2023-02-21T18:34:23.223Z,19.47
2023-02-21T18:37:25.549Z,19.45
2023-02-21T18:40:34.241Z,19.44
2023-02-21T18:43:36.553Z,19.42
2023-02-21T18:46:40.989Z,19.42
2023-02-21T18:49:44.432Z,19.39
2023-02-21T18:52:46.517Z,19.39
2023-02-21T18:55:48.637Z,19.39
2023-02-21T18:58:51.625Z,19.37
2023-02-21T19:01:55.158Z,19.37
2023-02-21T19:04:57.188Z,19.24
2023-02-21T19:07:59.835Z,19.22
2023-02-21T19:11:01.927Z,19.26
2023-02-21T19:14:05.608Z,19.28
2023-02-21T19:17:09.246Z,19.28
2023-02-21T19:20:12.488Z,19.26
2023-02-21T19:23:15.866Z,19.26
2023-02-21T19:26:18.478Z,19.24
2023-02-21T19:29:21.126Z,19.24
2023-02-21T19:32:24.172Z,19.24
2023-02-21T19:35:30.496Z,19.23
2023-02-21T19:38:32.744Z,19.23
2023-02-21T19:41:38.725Z,19.21
2023-02-21T19:44:40.770Z,19.20
2023-02-21T19:47:43.428Z,19.18
2023-02-21T19:50:45.775Z,19.17
2023-02-21T19:53:48.016Z,19.16
2023-02-21T19:56:50.522Z,19.14
2023-02-21T19:59:52.553Z,19.13
2023-02-21T20:02:54.857Z,19.14
2023-02-21T20:05:56.999Z,19.13
2023-02-21T20:08:59.023Z,19.11
2023-02-21T20:12:01.089Z,19.10
2023-02-21T20:15:03.865Z,19.08
2023-02-21T20:18:06.165Z,19.09
2023-02-21T20:21:08.658Z,19.09
2023-02-21T20:24:10.916Z,19.07
2023-02-21T20:27:14.575Z,19.05
2023-02-21T20:30:17.547Z,19.03
2023-02-21T20:33:23.012Z,19.02
2023-02-21T20:36:33.289Z,19.00
2023-02-21T20:39:35.386Z,18.99
2023-02-21T20:42:38.090Z,18.98
2023-02-21T20:45:40.330Z,18.97
2023-02-21T20:48:42.425Z,18.96
2023-02-21T20:51:44.500Z,18.94
2023-02-21T20:54:46.751Z,18.94
2023-02-21T20:57:49.585Z,18.92
2023-02-21T21:00:53.252Z,18.93
2023-02-21T21:03:56.920Z,18.91
2023-02-21T21:07:02.235Z,18.89
2023-02-21T21:10:07.588Z,18.88
2023-02-21T21:13:09.677Z,18.86
2023-02-21T21:16:11.825Z,18.85
2023-02-21T21:19:13.974Z,18.85
2023-02-21T21:22:19.716Z,18.84
2023-02-21T21:25:22.624Z,18.83
2023-02-21T21:28:24.718Z,18.82
2023-02-21T21:31:26.926Z,18.81
2023-02-21T21:34:32.172Z,18.80
2023-02-21T21:37:35.794Z,18.79
2023-02-21T21:40:37.925Z,18.77
2023-02-21T21:43:45.271Z,18.77
2023-02-21T21:46:49.080Z,18.76
2023-02-21T21:49:51.474Z,18.74
2023-02-21T21:52:58.591Z,18.73
2023-02-21T21:56:04.601Z,18.71
2023-02-21T21:59:08.736Z,18.71
2023-02-21T22:02:12.044Z,18.68
2023-02-21T22:05:15.021Z,18.70
2023-02-21T22:08:17.176Z,18.69
2023-02-21T22:11:20.786Z,18.67
2023-02-21T22:14:24.500Z,18.64
2023-02-21T22:17:26.537Z,18.63
2023-02-21T22:20:31.086Z,18.62
2023-02-21T22:23:33.141Z,18.61
2023-02-21T22:26:35.579Z,18.61
2023-02-21T22:29:37.585Z,18.58
2023-02-21T22:32:42.810Z,18.57
2023-02-21T22:35:45.254Z,18.57
2023-02-21T22:38:48.777Z,18.55
2023-02-21T22:41:51.076Z,18.54
2023-02-21T22:44:53.077Z,18.52
2023-02-21T22:47:57.509Z,18.52
2023-02-21T22:50:59.829Z,18.50
2023-02-21T22:54:02.369Z,18.48
2023-02-21T22:57:05.286Z,18.48
2023-02-21T23:00:19.050Z,18.48
2023-02-21T23:03:21.232Z,18.48
2023-02-21T23:06:24.187Z,18.46
2023-02-21T23:09:27.967Z,18.44
2023-02-21T23:12:29.997Z,18.42
2023-02-21T23:15:31.996Z,18.41
2023-02-21T23:18:34.134Z,18.40
2023-02-21T23:21:43.816Z,18.40
2023-02-21T23:24:45.969Z,18.40
2023-02-21T23:27:49.972Z,18.38
2023-02-21T23:30:52.151Z,18.36
2023-02-21T23:33:54.365Z,18.36
2023-02-21T23:36:58.979Z,18.34
2023-02-21T23:40:01.898Z,18.32
2023-02-21T23:43:03.913Z,18.32
2023-02-21T23:46:07.537Z,18.30
2023-02-21T23:49:15.607Z,18.30
2023-02-21T23:52:18.053Z,18.28
2023-02-21T23:55:27.868Z,18.27
2023-02-21T23:58:32.252Z,18.25
